KAST

Astoria Regional Airport

Astoria, Oregon, USA
METAR KAST 152155Z AUTO 25007KT 9SM OVC009 17/15 A2995 RMK AO2 SLP142 T01720150
Observed Flight Rules
Aug-15 @ 21:55 UTC (31 minutes ago) Instrument Flight Rules
Wind Visibility Clouds
250° at 7 knots 9 miles
  • Overcast at 900' AGL
Temperatures Readings
Current 17°C / 63°F
Dewpoint 15°C / 59°F
Humidity 88%
Altimeter 29.95" Hg
Pressure 1014.2 hPa
Elevation 3
METAR KAST 152155Z AUTO 25007KT 9SM OVC009 17/15 A2995 RMK AO2 SLP142 T01720150
Observed Flight Rules
Aug-15 @ 21:55 UTC
(31 minutes ago)
IFR
Wind Visibility
250° at 7 knots 9 miles
Clouds
  • Overcast at 900' AGL
Temperature Dewpoint
17°C / 63°F 15°C / 59°F
Humidity Altimeter Pressure
88% 29.95" Hg 1014.2 hPa